Terminal Aerodrome Forecast
Issued by NWS Jacksonville, FL

Current Version | Previous Version | Text Only | Print | Product List | Glossary On
Versions: 1 2 3 4 5 6 7 8 9 10 11 12 13 14 15 16 17 18 19
547
FTUS42 KJAX 030540
TAFGNV
TAF
KGNV 030540Z 0306/0406 25002KT P6SM BKN060 OVC200
     FM030900 23002KT 6SM BR SCT010
      TEMPO 0309/0312 4SM BR SCT006 BKN010
     FM031400 23010KT P6SM SCT035 BKN050
     FM031800 24012KT P6SM VCTS BKN040CB
     FM040000 23005KT P6SM VCSH SCT040 BKN200=

USA.gov is the U.S. government's official web portal to all federal, state and local government web resources and services.